Time;durP1;ratioP1;P1;durP2;ratioP2;P2;SDS_P1;SDS_P2;PMS_P1;PMS_P2;Temp;Humidity;BMP_temperature;BMP_pressure;BME280_temperature;BME280_humidity;BME280_pressure;Samples;Min_cycle;Max_cycle;Signal;HPM_P1;HPM_P2
2022/12/22 03:25:52;;;;;;;76.70;37.37;;;;;;;1.05;100.00;94685.28;5092146;28;20222;-53
2022/12/22 03:28:23;;;;;;;81.90;40.20;;;;;;;1.06;100.00;94697.69;5091928;28;20179;-55
2022/12/22 03:30:56;;;;;;;80.97;40.57;;;;;;;1.14;100.00;94710.66;5091779;28;20197;-53
2022/12/22 03:33:22;;;;;;;83.37;38.47;;;;;;;1.23;100.00;94719.44;5091707;28;20188;-54
2022/12/22 03:35:47;;;;;;;78.57;41.57;;;;;;;1.31;100.00;94734.91;5091708;28;20208;-56
2022/12/22 03:38:12;;;;;;;84.33;41.97;;;;;;;1.26;100.00;94719.28;5091463;28;20182;-55
2022/12/22 03:40:38;;;;;;;83.17;40.27;;;;;;;1.15;100.00;94724.78;5091270;28;20276;-53
2022/12/22 03:48:37;;;;;;;66.23;36.03;;;;;;;1.08;100.00;94705.13;5091730;28;20227;-53
2022/12/22 03:51:03;;;;;;;78.17;39.27;;;;;;;1.10;100.00;94703.38;5091563;28;20578;-55
2022/12/22 03:53:28;;;;;;;59.07;32.23;;;;;;;1.31;100.00;94740.72;5091486;28;20192;-54
2022/12/22 03:55:54;;;;;;;50.67;28.93;;;;;;;1.15;100.00;94751.53;5091398;28;20212;-57
2022/12/22 03:58:19;;;;;;;48.70;22.80;;;;;;;1.19;100.00;94775.53;5091483;28;20641;-54
2022/12/22 04:00:44;;;;;;;43.63;21.93;;;;;;;1.03;100.00;94777.13;5091245;28;20234;-56
2022/12/22 04:03:10;;;;;;;36.33;16.83;;;;;;;1.03;100.00;94784.63;5091200;28;20246;-53
2022/12/22 04:05:35;;;;;;;34.47;16.40;;;;;;;0.94;100.00;94748.31;5090603;28;20235;-55
2022/12/22 04:08:01;;;;;;;41.30;21.43;;;;;;;0.91;100.00;94717.63;5091255;28;20184;-54
2022/12/22 04:13:10;;;;;;;50.17;27.70;;;;;;;0.83;100.00;94706.28;5090865;28;20242;-53
2022/12/22 04:15:35;;;;;;;46.27;24.37;;;;;;;0.76;100.00;94674.13;5090903;28;20696;-54
2022/12/22 04:18:01;;;;;;;47.40;23.77;;;;;;;0.81;100.00;94693.03;5091135;28;20283;-55
2022/12/22 04:20:27;;;;;;;52.80;25.97;;;;;;;0.82;100.00;94683.84;5091292;28;20212;-53
2022/12/22 04:22:54;;;;;;;47.73;25.87;;;;;;;0.90;100.00;94694.31;5091097;28;20218;-54
2022/12/22 04:25:20;;;;;;;51.20;25.73;;;;;;;0.89;100.00;94700.16;5091296;28;20707;-55
2022/12/22 04:27:46;;;;;;;60.47;29.60;;;;;;;0.88;100.00;94693.56;5072844;28;20195;-53
2022/12/22 04:30:12;;;;;;;59.57;30.17;;;;;;;0.91;100.00;94680.91;5090917;28;20316;-56
2022/12/22 04:32:37;;;;;;;65.10;31.87;;;;;;;1.00;100.00;94697.16;5090832;28;20188;-54
2022/12/22 04:35:04;;;;;;;61.97;31.30;;;;;;;0.97;100.00;94690.63;5090481;28;20222;-53
2022/12/22 04:37:30;;;;;;;66.83;32.30;;;;;;;0.91;100.00;94682.63;5090798;28;20188;-54
2022/12/22 04:39:56;;;;;;;53.57;28.70;;;;;;;0.92;100.00;94684.22;5091055;28;20680;-56
2022/12/22 04:42:21;;;;;;;44.40;23.70;;;;;;;0.95;100.00;94689.88;5090715;28;20184;-57
2022/12/22 04:44:46;;;;;;;40.27;21.50;;;;;;;1.00;100.00;94713.00;5072697;28;20707;-55
2022/12/22 04:47:12;;;;;;;45.63;22.43;;;;;;;0.90;100.00;94691.81;5090584;28;20310;-54
2022/12/22 04:49:37;;;;;;;64.67;24.47;;;;;;;0.97;100.00;94718.13;5072532;28;20219;-54
2022/12/22 04:52:03;;;;;;;56.60;26.33;;;;;;;0.81;100.00;94703.03;5090727;28;20180;-55
2022/12/22 04:54:28;;;;;;;50.50;23.73;;;;;;;0.72;100.00;94673.47;5090765;28;20212;-55
2022/12/22 04:56:54;;;;;;;50.70;26.37;;;;;;;0.67;100.00;94665.34;5090868;28;20263;-56
2022/12/22 04:59:19;;;;;;;59.23;27.93;;;;;;;0.48;100.00;94634.59;5072229;28;20204;-55
2022/12/22 05:01:44;;;;;;;53.60;27.60;;;;;;;0.58;100.00;94670.78;5090576;28;20251;-56
2022/12/22 05:04:10;;;;;;;51.30;25.10;;;;;;;0.97;100.00;94730.66;5090864;28;20212;-55
2022/12/22 05:06:35;;;;;;;57.30;26.77;;;;;;;0.91;100.00;94730.94;5090615;28;20263;-55
2022/12/22 05:09:01;;;;;;;59.07;30.27;;;;;;;0.93;100.00;94736.69;5090940;28;20202;-54
2022/12/22 05:11:26;;;;;;;83.63;37.70;;;;;;;0.87;100.00;94721.16;5090477;28;20189;-53
2022/12/22 05:13:52;;;;;;;99.17;45.27;;;;;;;0.75;100.00;94705.81;5090220;28;20185;-56
2022/12/22 05:16:17;;;;;;;99.77;48.60;;;;;;;0.68;100.00;94691.19;5072281;28;20593;-56
2022/12/22 05:18:44;;;;;;;108.67;49.27;;;;;;;0.51;100.00;94663.63;5092868;28;20249;-54
2022/12/22 05:21:21;;;;;;;104.37;47.07;;;;;;;0.37;100.00;94641.75;5075551;28;20628;-54
2022/12/22 05:23:46;;;;;;;76.03;37.60;;;;;;;0.51;100.00;94663.63;5075594;28;20203;-57
2022/12/22 05:26:13;;;;;;;87.93;40.17;;;;;;;0.60;100.00;94688.22;5101271;22;20223;-56
2022/12/22 05:28:39;;;;;;;86.20;41.03;;;;;;;0.55;100.00;94690.91;5093685;28;20229;-55
2022/12/22 05:31:08;;;;;;;75.80;37.77;;;;;;;0.40;100.00;94685.81;5094121;28;20204;-56
2022/12/22 05:33:34;;;;;;;82.73;36.13;;;;;;;0.39;100.00;94680.00;5093752;28;20183;-57
2022/12/22 05:36:00;;;;;;;80.60;33.47;;;;;;;0.32;100.00;94650.34;5093946;28;20208;-55
2022/12/22 05:38:25;;;;;;;64.53;31.77;;;;;;;0.43;100.00;94670.66;5093520;28;20191;-53
2022/12/22 05:40:51;;;;;;;61.60;32.20;;;;;;;0.37;100.00;94655.94;5093460;28;20297;-54
2022/12/22 05:43:16;;;;;;;59.77;31.57;;;;;;;0.52;100.00;94688.56;5093524;28;20237;-53
2022/12/22 05:45:46;;;;;;;56.93;28.43;;;;;;;0.54;100.00;94701.00;5093579;28;20705;-55
2022/12/22 05:48:11;;;;;;;55.67;29.10;;;;;;;0.60;100.00;94710.72;5093401;28;20206;-54
2022/12/22 05:50:37;;;;;;;64.13;30.53;;;;;;;0.49;100.00;94686.19;5093185;28;20620;-54
2022/12/22 05:53:04;;;;;;;52.87;27.17;;;;;;;0.46;100.00;94665.53;5093412;28;20180;-56
2022/12/22 05:55:30;;;;;;;56.10;29.97;;;;;;;0.45;100.00;94652.22;5093633;28;20670;-55
2022/12/22 05:57:55;;;;;;;56.20;30.03;;;;;;;0.52;100.00;94655.25;5093060;28;20218;-55
2022/12/22 06:00:21;;;;;;;64.87;30.63;;;;;;;0.55;100.00;94665.91;5093105;28;20212;-56
2022/12/22 06:02:47;;;;;;;79.00;34.97;;;;;;;0.55;100.00;94655.91;5093048;28;20211;-55
2022/12/22 06:05:13;;;;;;;71.93;34.20;;;;;;;0.60;100.00;94658.22;5093153;28;20216;-54
2022/12/22 06:07:39;;;;;;;74.57;34.70;;;;;;;0.65;100.00;94677.13;5093126;28;20267;-57
2022/12/22 06:10:06;;;;;;;75.33;36.13;;;;;;;0.73;100.00;94674.25;5093085;28;20767;-56
2022/12/22 06:12:32;;;;;;;68.77;35.23;;;;;;;0.72;100.00;94662.66;5092933;28;20188;-56
2022/12/22 06:14:57;;;;;;;73.37;36.63;;;;;;;0.73;100.00;94640.06;5092968;28;20231;-53
2022/12/22 06:17:22;;;;;;;76.07;36.03;;;;;;;0.77;100.00;94659.03;5093061;28;20185;-56
2022/12/22 06:19:48;;;;;;;72.17;34.03;;;;;;;1.66;100.00;94626.28;5092606;28;20220;-55
2022/12/22 06:22:13;;;;;;;79.93;31.77;;;;;;;1.48;100.00;94725.69;5092659;28;20184;-55
2022/12/22 06:24:39;;;;;;;57.50;30.57;;;;;;;1.41;100.00;94731.88;5093070;28;20212;-55
2022/12/22 06:27:04;;;;;;;56.77;30.87;;;;;;;1.43;100.00;94760.16;5091984;28;20185;-56
2022/12/22 06:29:30;;;;;;;53.70;26.87;;;;;;;1.59;100.00;94782.78;5092260;28;20241;-56
2022/12/22 06:31:55;;;;;;;48.70;24.63;;;;;;;1.35;100.00;94768.91;5092644;28;20193;-55
2022/12/22 06:34:21;;;;;;;57.27;25.73;;;;;;;1.06;100.00;94721.91;5092564;28;20253;-56
2022/12/22 06:36:46;;;;;;;53.10;27.00;;;;;;;1.14;100.00;94730.69;5092419;28;20669;-54
2022/12/22 06:39:14;;;;;;;56.83;28.70;;;;;;;1.18;100.00;94762.19;5092488;28;20204;-56
2022/12/22 06:44:24;;;;;;;55.70;27.93;;;;;;;1.26;100.00;94745.13;5092791;28;20292;-55
2022/12/22 06:46:49;;;;;;;54.40;27.17;;;;;;;1.22;100.00;94748.66;5092273;28;20194;-57
2022/12/22 06:49:15;;;;;;;52.73;28.07;;;;;;;1.19;100.00;94748.00;5092178;28;20212;-55
2022/12/22 06:51:41;;;;;;;61.40;28.17;;;;;;;1.39;100.00;94766.22;5092356;28;20192;-54
2022/12/22 06:54:08;;;;;;;60.13;30.53;;;;;;;1.44;100.00;94766.78;5092143;28;20192;-52
2022/12/22 06:56:33;;;;;;;52.67;29.40;;;;;;;1.47;100.00;94744.13;5092122;28;20194;-54
2022/12/22 06:58:59;;;;;;;82.97;40.33;;;;;;;1.07;100.00;94751.06;5091944;28;20192;-56
2022/12/22 07:01:24;;;;;;;73.83;35.63;;;;;;;0.43;100.00;94681.47;5092544;28;20220;-57
2022/12/22 07:03:50;;;;;;;81.63;38.07;;;;;;;0.04;100.00;94620.81;5092264;28;20350;-55
2022/12/22 07:06:18;;;;;;;79.10;39.93;;;;;;;0.55;100.00;94670.09;5092525;28;20725;-54
2022/12/22 07:08:45;;;;;;;74.40;34.70;;;;;;;0.90;100.00;94713.50;5092107;28;20191;-56
2022/12/22 07:11:11;;;;;;;73.30;33.77;;;;;;;1.38;100.00;94756.25;5092193;28;20216;-55
2022/12/22 07:13:36;;;;;;;70.60;33.63;;;;;;;1.51;100.00;94749.78;5091928;28;20619;-54
2022/12/22 07:16:04;;;;;;;62.70;33.07;;;;;;;1.65;100.00;94787.50;5092036;28;20257;-54
2022/12/22 07:18:32;;;;;;;76.03;35.90;;;;;;;1.61;100.00;94786.03;5091665;28;20204;-56
2022/12/22 07:21:02;;;;;;;63.43;31.70;;;;;;;1.45;100.00;94765.91;5091620;28;20281;-55
2022/12/22 07:23:28;;;;;;;58.33;30.97;;;;;;;1.79;100.00;94779.28;5091741;28;20192;-53
2022/12/22 07:25:54;;;;;;;80.30;34.90;;;;;;;1.54;100.00;94787.19;5092212;28;20212;-53
2022/12/22 07:28:20;;;;;;;62.00;30.57;;;;;;;1.78;100.00;94803.53;5091882;28;20191;-55
2022/12/22 07:30:45;;;;;;;59.33;31.47;;;;;;;2.07;100.00;94810.44;5091684;28;20721;-54
2022/12/22 07:33:11;;;;;;;61.87;32.10;;;;;;;2.44;100.00;94839.53;5091684;28;20194;-55
2022/12/22 07:35:36;;;;;;;66.37;30.43;;;;;;;2.66;100.00;94851.78;5091854;28;20213;-55
2022/12/22 07:38:02;;;;;;;60.30;31.23;;;;;;;2.78;100.00;94843.63;5091524;28;20270;-54
2022/12/22 07:40:27;;;;;;;53.97;29.50;;;;;;;2.67;100.00;94839.16;5090140;28;20278;-54
2022/12/22 07:42:57;;;;;;;65.90;32.80;;;;;;;2.93;100.00;94863.72;5073144;28;20278;-54
2022/12/22 07:45:22;;;;;;;61.30;34.40;;;;;;;2.97;100.00;94874.44;5091668;28;20210;-56
2022/12/22 07:47:48;;;;;;;71.30;37.10;;;;;;;3.21;100.00;94878.97;5091238;28;20575;-55
2022/12/22 07:50:26;;;;;;;72.83;34.83;;;;;;;3.46;100.00;94902.78;5091556;28;20214;-56
2022/12/22 07:52:57;;;;;;;68.40;34.60;;;;;;;3.53;100.00;94899.06;5091238;28;20232;-55
2022/12/22 07:55:24;;;;;;;63.70;33.33;;;;;;;3.81;100.00;94925.16;5091471;28;20280;-57
2022/12/22 07:57:50;;;;;;;69.17;32.80;;;;;;;4.01;100.00;94911.50;5091356;28;20319;-57
2022/12/22 08:00:16;;;;;;;69.87;34.40;;;;;;;4.25;100.00;94957.94;5091163;28;20717;-57
2022/12/22 08:02:46;;;;;;;64.90;34.13;;;;;;;4.39;100.00;94980.63;5091083;28;20194;-57
2022/12/22 08:05:19;;;;;;;68.40;33.77;;;;;;;4.55;100.00;94970.50;5091196;28;20210;-55
2022/12/22 08:07:46;;;;;;;68.57;34.80;;;;;;;5.03;100.00;95006.28;5091194;28;20674;-53
2022/12/22 08:10:12;;;;;;;70.57;35.33;;;;;;;5.36;100.00;95008.56;5091364;28;20203;-56
2022/12/22 08:12:38;;;;;;;86.30;38.23;;;;;;;5.40;100.00;94996.59;5091194;28;20195;-55
2022/12/22 08:15:04;;;;;;;65.30;33.73;;;;;;;5.79;100.00;95040.44;5091391;28;20218;-57
2022/12/22 08:17:30;;;;;;;69.70;33.83;;;;;;;6.02;99.06;95054.19;5091179;28;20192;-57
2022/12/22 08:19:55;;;;;;;58.73;32.10;;;;;;;6.05;99.07;95048.97;5091019;28;20234;-57
2022/12/22 08:22:24;;;;;;;63.17;32.77;;;;;;;6.51;97.74;95060.38;5091242;28;20183;-56
2022/12/22 08:24:51;;;;;;;58.23;31.13;;;;;;;6.59;97.01;95072.53;5091171;28;20216;-56
2022/12/22 08:27:22;;;;;;;60.93;31.57;;;;;;;6.88;95.60;95091.72;5090940;28;20188;-57
2022/12/22 08:29:53;;;;;;;48.03;26.70;;;;;;;7.10;94.49;95101.28;5091237;28;20223;-58
2022/12/22 08:32:18;;;;;;;49.27;27.03;;;;;;;7.26;93.56;95106.97;5090990;28;20267;-54
2022/12/22 08:34:44;;;;;;;49.63;28.40;;;;;;;7.37;81.93;95107.09;5091072;28;20255;-56
2022/12/22 08:37:13;;;;;;;52.77;27.17;;;;;;;7.62;77.35;95142.50;5090941;28;20188;-56
2022/12/22 08:39:41;;;;;;;48.90;26.13;;;;;;;7.71;77.64;95129.28;5091015;28;20227;-56
2022/12/22 08:42:11;;;;;;;45.37;24.17;;;;;;;7.84;73.30;95147.78;5090859;28;20212;-54
2022/12/22 08:44:39;;;;;;;49.83;24.93;;;;;;;7.85;72.76;95149.41;5091054;28;20224;-54
2022/12/22 08:47:05;;;;;;;54.97;24.73;;;;;;;7.90;72.75;95134.72;5090747;28;20212;-56
2022/12/22 08:49:31;;;;;;;47.43;25.43;;;;;;;8.17;72.29;95135.41;5090869;28;20721;-54
2022/12/22 08:51:57;;;;;;;39.10;23.77;;;;;;;8.28;70.71;95155.00;5092249;28;20213;-56
2022/12/22 08:54:23;;;;;;;47.30;26.23;;;;;;;8.61;70.57;95165.34;5094380;28;20598;-58
2022/12/22 08:56:49;;;;;;;47.57;25.20;;;;;;;8.71;67.60;95199.28;5094180;28;20610;-55
2022/12/22 08:59:15;;;;;;;41.80;24.93;;;;;;;8.70;64.32;95186.72;5094222;28;20629;-54
2022/12/22 09:01:49;;;;;;;45.50;25.20;;;;;;;8.65;65.45;95153.25;5094193;28;20219;-55
2022/12/22 09:04:17;;;;;;;45.10;25.53;;;;;;;8.87;63.78;95183.81;5094217;28;20276;-56
2022/12/22 09:06:42;;;;;;;42.10;23.97;;;;;;;8.68;64.97;95141.22;5075943;28;20596;-54
2022/12/22 09:09:10;;;;;;;55.17;26.47;;;;;;;9.07;64.23;95166.28;5094029;28;20192;-57
2022/12/22 09:11:36;;;;;;;51.20;26.47;;;;;;;9.15;63.82;95155.63;5094038;28;20301;-54
2022/12/22 09:14:02;;;;;;;51.90;27.03;;;;;;;9.39;63.17;95170.81;5094040;28;20233;-56
2022/12/22 09:16:29;;;;;;;46.27;24.33;;;;;;;9.51;62.58;95180.09;5094329;28;20647;-57
2022/12/22 09:18:55;;;;;;;45.40;26.27;;;;;;;9.74;62.28;95174.94;5093824;28;20186;-55
2022/12/22 09:21:22;;;;;;;55.33;27.10;;;;;;;10.03;60.08;95234.59;5093929;28;20677;-57
2022/12/22 09:23:48;;;;;;;46.33;25.77;;;;;;;9.78;59.66;95223.75;5093740;28;20185;-55
2022/12/22 09:26:17;;;;;;;47.40;26.73;;;;;;;9.41;62.37;95133.44;5101411;22;20223;-57
2022/12/22 09:28:43;;;;;;;48.37;28.10;;;;;;;9.73;61.55;95159.84;5094055;28;20275;-56
2022/12/22 09:31:09;;;;;;;45.83;27.43;;;;;;;10.05;61.38;95166.69;5093590;28;20283;-57
2022/12/22 09:33:37;;;;;;;52.87;28.20;;;;;;;10.23;60.75;95189.13;5093713;28;20249;-56
2022/12/22 09:36:11;;;;;;;51.70;28.00;;;;;;;10.36;59.27;95223.69;5093540;28;20203;-54
2022/12/22 09:38:38;;;;;;;53.80;29.47;;;;;;;10.55;59.17;95197.69;5093822;28;20596;-57
2022/12/22 09:41:42;;;;;;;48.30;28.77;;;;;;;10.73;59.38;95196.28;5093411;28;20203;-55
2022/12/22 09:44:24;;;;;;;45.30;27.77;;;;;;;10.72;57.85;95243.81;5093662;28;20562;-57
2022/12/22 09:46:52;;;;;;;46.87;27.03;;;;;;;10.56;57.19;95240.81;5093334;28;20325;-58
2022/12/22 09:49:18;;;;;;;53.67;27.83;;;;;;;10.53;57.50;95218.16;5093620;28;20211;-55
2022/12/22 09:51:49;;;;;;;47.73;26.17;;;;;;;10.59;57.83;95220.22;5093362;28;20306;-55
2022/12/22 09:54:15;;;;;;;48.47;28.33;;;;;;;10.68;58.30;95199.19;5093400;28;20261;-59
2022/12/22 09:56:41;;;;;;;47.00;27.77;;;;;;;11.08;55.99;95259.72;5093219;28;20265;-55
2022/12/22 09:59:14;;;;;;;51.87;29.30;;;;;;;11.26;55.55;95222.66;5093598;28;20321;-56
2022/12/22 10:02:07;;;;;;;43.83;27.10;;;;;;;11.35;57.16;95130.31;5093213;28;20207;-55
2022/12/22 10:05:10;;;;;;;51.97;28.83;;;;;;;11.52;55.55;95155.22;5074433;28;20235;-54
2022/12/22 10:07:38;;;;;;;57.37;26.73;;;;;;;11.88;55.53;95128.56;5092952;28;20183;-55
2022/12/22 10:10:19;;;;;;;49.30;28.70;;;;;;;12.02;53.56;95156.25;5093269;28;20219;-57
2022/12/22 10:12:47;;;;;;;48.90;27.53;;;;;;;12.02;53.29;95146.06;5093147;28;20676;-55
2022/12/22 10:15:13;;;;;;;46.33;28.77;;;;;;;12.01;53.02;95116.41;5093255;28;20279;-58
2022/12/22 10:17:38;;;;;;;56.43;28.87;;;;;;;11.95;53.28;95094.78;5092879;28;20267;-55
2022/12/22 10:20:13;;;;;;;45.47;25.90;;;;;;;11.95;52.96;95096.53;5092874;28;20219;-57
2022/12/22 10:22:48;;;;;;;47.70;27.03;;;;;;;11.67;53.47;95072.53;5092905;28;20241;-58
2022/12/22 10:25:33;;;;;;;51.97;28.57;;;;;;;12.02;52.67;95078.06;5093408;28;20204;-54
2022/12/22 10:28:02;;;;;;;54.47;27.67;;;;;;;12.28;52.04;95079.22;5092846;28;20233;-57
2022/12/22 10:30:31;;;;;;;44.60;26.00;;;;;;;12.30;52.66;95051.06;5092965;28;20257;-58
2022/12/22 10:33:17;;;;;;;47.33;26.57;;;;;;;12.27;51.41;95092.91;5092611;28;20192;-56
2022/12/22 10:35:55;;;;;;;47.30;27.23;;;;;;;12.19;50.88;95099.59;5092608;28;20227;-57
2022/12/22 10:38:25;;;;;;;53.40;27.37;;;;;;;12.39;51.03;95089.31;5093067;28;20176;-54
2022/12/22 10:41:02;;;;;;;51.67;27.67;;;;;;;12.21;50.66;95085.78;5092364;28;20620;-56
2022/12/22 10:43:36;;;;;;;51.27;27.10;;;;;;;12.29;51.04;95062.19;5092646;28;20196;-53
2022/12/22 10:46:02;;;;;;;45.47;27.67;;;;;;;12.34;50.97;95052.41;5092498;28;20204;-56
2022/12/22 10:48:31;;;;;;;42.23;25.43;;;;;;;12.60;50.72;95077.28;5092698;28;20595;-57
2022/12/22 10:50:58;;;;;;;46.77;25.60;;;;;;;12.49;50.73;95059.56;5092373;28;20219;-56
2022/12/22 10:53:47;;;;;;;41.73;26.53;;;;;;;12.55;50.60;95048.81;5092416;28;20210;-54
2022/12/22 10:56:29;;;;;;;41.07;26.93;;;;;;;12.58;49.70;95071.50;5092223;28;20204;-55
2022/12/22 10:58:56;;;;;;;57.23;27.80;;;;;;;12.70;50.67;95041.59;5092474;28;20214;-58
2022/12/22 11:01:24;;;;;;;47.67;26.10;;;;;;;12.77;50.56;95032.47;5091969;28;20216;-57
2022/12/22 11:03:49;;;;;;;42.47;24.80;;;;;;;12.86;49.15;95080.16;5092178;28;20621;-54
2022/12/22 11:06:15;;;;;;;47.07;27.10;;;;;;;12.93;48.71;95088.88;5092101;28;20669;-55
2022/12/22 11:08:40;;;;;;;43.20;26.13;;;;;;;12.89;49.06;95056.13;5074256;28;20192;-55
2022/12/22 11:11:14;;;;;;;39.93;25.17;;;;;;;12.86;49.65;95046.16;5092240;28;20211;-55
2022/12/22 11:13:52;;;;;;;43.53;27.90;;;;;;;12.84;48.34;95059.06;5092198;28;20646;-55
2022/12/22 11:16:33;;;;;;;42.63;25.83;;;;;;;12.80;48.82;95047.53;5091728;28;20188;-55
2022/12/22 11:19:07;;;;;;;44.23;25.50;;;;;;;12.83;48.71;95031.13;5092159;28;20279;-58
2022/12/22 11:21:44;;;;;;;43.17;25.70;;;;;;;12.72;49.28;95014.22;5073710;28;20290;-57
2022/12/22 11:24:28;;;;;;;48.37;26.47;;;;;;;12.73;49.14;95017.56;5091927;28;20222;-56
2022/12/22 11:27:05;;;;;;;43.83;24.67;;;;;;;12.93;48.76;95031.94;5092098;28;20184;-56
2022/12/22 11:29:49;;;;;;;49.20;27.83;;;;;;;12.97;48.18;95039.19;5091777;28;20302;-56
2022/12/22 11:32:28;;;;;;;49.20;25.77;;;;;;;13.25;48.00;95042.72;5091692;28;20184;-55
2022/12/22 11:35:10;;;;;;;46.60;25.63;;;;;;;13.06;45.67;95093.75;5092179;28;20216;-56
2022/12/22 11:37:45;;;;;;;45.90;25.87;;;;;;;12.76;46.99;95053.81;5091891;28;20188;-55
2022/12/22 11:40:34;;;;;;;46.17;26.40;;;;;;;12.97;46.76;95035.84;5091874;28;20219;-54
2022/12/22 11:43:00;;;;;;;45.40;26.03;;;;;;;13.01;47.48;95030.31;5091745;28;20267;-54
2022/12/22 11:45:53;;;;;;;41.90;26.30;;;;;;;13.10;46.67;95036.38;5091960;28;20323;-57
2022/12/22 11:48:43;;;;;;;46.23;25.87;;;;;;;13.13;47.38;95008.84;5073328;28;20206;-56
2022/12/22 11:51:14;;;;;;;43.63;25.47;;;;;;;13.20;48.10;94989.50;5091716;28;20211;-56
2022/12/22 11:53:58;;;;;;;52.87;27.43;;;;;;;13.11;48.13;94985.19;5073392;28;20272;-56
2022/12/22 11:56:38;;;;;;;43.40;25.43;;;;;;;13.32;47.52;95008.00;5091622;28;20241;-58
2022/12/22 11:59:04;;;;;;;44.90;27.47;;;;;;;13.38;46.40;95045.75;5091573;28;20543;-56
2022/12/22 12:01:56;;;;;;;44.97;25.30;;;;;;;13.39;45.56;95040.50;5091195;28;20273;-54
2022/12/22 12:04:40;;;;;;;50.43;27.40;;;;;;;13.57;44.94;95062.81;5073281;28;20231;-55
2022/12/22 12:07:26;;;;;;;45.33;26.77;;;;;;;13.64;44.58;95069.78;5091350;28;20198;-58
2022/12/22 12:10:19;;;;;;;45.83;29.20;;;;;;;13.35;45.20;95033.28;5091277;28;20609;-56
2022/12/22 12:13:20;;;;;;;55.93;28.10;;;;;;;13.40;45.73;95021.69;5053303;28;20200;-59
2022/12/22 12:15:59;;;;;;;49.47;28.57;;;;;;;13.34;45.68;95011.22;5091115;28;20626;-56
2022/12/22 12:18:44;;;;;;;46.33;29.40;;;;;;;13.37;45.36;95016.84;5091437;28;20199;-55
2022/12/22 12:21:40;;;;;;;52.60;28.73;;;;;;;13.18;44.64;95031.41;5091046;28;20243;-57
2022/12/22 12:24:37;;;;;;;47.57;28.07;;;;;;;13.25;45.24;95019.72;5091053;28;20192;-58
2022/12/22 12:27:02;;;;;;;45.80;26.87;;;;;;;12.85;45.29;95003.72;5022697;28;20745;-56
2022/12/22 12:29:33;;;;;;;52.03;28.70;;;;;;;12.98;46.59;94964.25;5097915;28;20302;-57
2022/12/22 12:32:10;;;;;;;52.27;29.20;;;;;;;13.29;46.75;94965.66;5097690;28;20263;-56
2022/12/22 12:34:41;;;;;;;47.83;28.50;;;;;;;13.63;45.51;95006.06;5097428;28;20215;-56
2022/12/22 12:37:16;;;;;;;56.20;29.47;;;;;;;13.72;46.75;94966.88;5097906;28;20271;-57
2022/12/22 12:39:55;;;;;;;48.77;28.63;;;;;;;13.67;45.27;94997.97;5097902;28;20440;-59
2022/12/22 12:42:37;;;;;;;48.80;29.50;;;;;;;13.65;46.74;94965.84;5079406;28;20195;-55
2022/12/22 12:45:24;;;;;;;57.20;28.77;;;;;;;13.73;45.97;94987.19;5097939;28;20300;-56
2022/12/22 12:47:49;;;;;;;55.33;29.63;;;;;;;13.55;45.44;94990.63;5097214;28;20218;-56
2022/12/22 12:50:34;;;;;;;52.03;28.37;;;;;;;12.77;47.08;94940.63;5097713;28;20211;-56
2022/12/22 12:53:08;;;;;;;50.17;31.07;;;;;;;12.86;47.13;94934.72;5097529;28;20191;-58
2022/12/22 12:55:39;;;;;;;58.33;30.27;;;;;;;12.80;47.51;94914.03;5062680;28;20708;-58
2022/12/22 12:58:10;;;;;;;53.87;29.30;;;;;;;12.88;47.62;94907.31;5097231;28;20188;-55
2022/12/22 13:00:35;;;;;;;47.47;29.33;;;;;;;13.11;47.00;94931.59;5097318;28;20212;-56
2022/12/22 13:03:07;;;;;;;60.50;30.77;;;;;;;13.10;47.53;94911.31;5097439;28;20248;-54
2022/12/22 13:05:52;;;;;;;57.70;29.33;;;;;;;13.13;48.11;94893.19;5079024;28;20227;-58
2022/12/22 13:08:20;;;;;;;50.90;31.57;;;;;;;13.04;48.31;94892.25;5097179;28;20191;-55
2022/12/22 13:10:52;;;;;;;50.60;30.37;;;;;;;12.87;48.04;94895.50;5097117;28;20276;-58
2022/12/22 13:13:20;;;;;;;49.37;30.37;;;;;;;12.76;48.57;94877.81;5097324;28;20714;-59
2022/12/22 13:15:47;;;;;;;50.77;31.60;;;;;;;12.60;49.14;94862.25;5097116;28;20291;-55
2022/12/22 13:18:22;;;;;;;54.73;32.07;;;;;;;12.38;49.54;94862.56;5097081;28;20204;-58
2022/12/22 13:21:12;;;;;;;55.23;31.57;;;;;;;12.14;50.44;94822.16;5097281;28;20303;-55
2022/12/22 13:23:44;;;;;;;62.83;32.27;;;;;;;12.08;50.67;94824.47;5068509;28;20215;-58
2022/12/22 13:26:16;;;;;;;60.77;32.47;;;;;;;11.98;50.54;94813.47;5096881;28;20212;-56
2022/12/22 13:28:45;;;;;;;55.83;30.87;;;;;;;11.90;51.02;94798.06;5096898;28;20203;-57
2022/12/22 13:31:22;;;;;;;60.70;33.60;;;;;;;11.74;52.39;94773.91;5096825;28;20231;-57
2022/12/22 13:34:13;;;;;;;57.73;31.70;;;;;;;11.56;52.68;94760.22;5097143;28;20198;-57
2022/12/22 13:36:39;;;;;;;55.10;32.57;;;;;;;11.28;53.41;94739.81;5058681;28;20204;-54
2022/12/22 13:39:12;;;;;;;65.17;32.57;;;;;;;11.03;54.52;94712.34;5093054;28;20272;-55
2022/12/22 13:41:40;;;;;;;62.03;32.80;;;;;;;10.94;54.91;94719.00;5093361;28;20204;-55
2022/12/22 13:44:13;;;;;;;59.07;31.27;;;;;;;10.78;55.93;94678.00;5093367;28;20196;-59
2022/12/22 13:46:41;;;;;;;55.30;31.90;;;;;;;10.70;56.66;94660.06;5093478;28;20207;-63
2022/12/22 13:49:09;;;;;;;56.13;32.30;;;;;;;10.70;56.79;94650.69;5093472;28;20277;-57
2022/12/22 13:51:36;;;;;;;53.03;30.83;;;;;;;10.55;57.86;94630.84;5093411;28;20563;-54
2022/12/22 13:54:13;;;;;;;63.77;31.17;;;;;;;10.38;58.76;94608.59;5093340;28;20271;-54
2022/12/22 13:56:46;;;;;;;64.07;32.10;;;;;;;10.21;59.59;94582.09;5093308;28;20180;-54
2022/12/22 13:59:21;;;;;;;64.20;31.00;;;;;;;10.17;60.38;94580.72;5093433;28;20298;-56
2022/12/22 14:01:55;;;;;;;60.37;31.63;;;;;;;10.11;60.88;94581.25;5093058;28;20707;-57
2022/12/22 14:04:21;;;;;;;59.10;31.00;;;;;;;10.09;61.11;94558.50;5093246;28;20243;-57
2022/12/22 14:06:47;;;;;;;59.47;30.90;;;;;;;9.96;61.01;94568.06;5093209;28;20672;-53
2022/12/22 14:09:20;;;;;;;55.97;29.03;;;;;;;9.99;60.69;94583.06;5093423;28;20208;-57
2022/12/22 14:12:11;;;;;;;57.23;30.90;;;;;;;9.84;60.39;94583.50;5093118;28;20203;-54
2022/12/22 14:14:43;;;;;;;60.77;30.73;;;;;;;9.65;61.04;94571.56;5093444;28;20677;-54
2022/12/22 14:17:17;;;;;;;61.50;29.70;;;;;;;9.45;61.87;94548.75;5092945;28;20168;-56
2022/12/22 14:19:42;;;;;;;56.63;29.63;;;;;;;9.26;63.20;94516.44;5093213;28;20212;-57
2022/12/22 14:22:10;;;;;;;54.27;30.63;;;;;;;9.35;62.86;94530.94;5100659;22;20596;-57
2022/12/22 14:24:53;;;;;;;59.30;31.43;;;;;;;9.36;62.51;94526.66;5093070;28;20215;-57
2022/12/22 14:27:33;;;;;;;55.43;30.30;;;;;;;9.23;62.75;94537.78;5092916;28;20175;-55
2022/12/22 14:30:01;;;;;;;59.43;31.20;;;;;;;9.02;63.58;94510.84;5092836;28;20346;-56
2022/12/22 14:32:41;;;;;;;52.37;29.90;;;;;;;8.84;64.87;94479.38;5074443;28;20506;-55
2022/12/22 14:35:18;;;;;;;54.03;31.27;;;;;;;8.87;64.41;94500.19;5093007;28;20220;-56
2022/12/22 14:37:48;;;;;;;60.63;30.33;;;;;;;8.75;64.36;94493.59;5092725;28;20180;-55
2022/12/22 14:40:37;;;;;;;58.27;29.13;;;;;;;8.76;65.20;94490.13;5092802;28;22190;-54
2022/12/22 14:43:13;;;;;;;57.70;29.90;;;;;;;8.67;65.19;94474.84;5092556;28;20181;-55
2022/12/22 14:45:39;;;;;;;63.97;29.67;;;;;;;8.41;66.02;94465.06;5092924;28;20239;-56
2022/12/22 14:48:07;;;;;;;52.60;28.50;;;;;;;8.46;65.93;94478.16;5092627;28;20651;-56
2022/12/22 14:50:33;;;;;;;58.47;28.20;;;;;;;8.33;66.74;94457.28;5092107;28;20211;-55
2022/12/22 14:53:00;;;;;;;52.50;27.70;;;;;;;8.23;67.19;94453.84;5092451;28;20263;-54
2022/12/22 14:55:33;;;;;;;50.43;26.87;;;;;;;8.25;66.60;94466.41;5092659;28;20277;-54
2022/12/22 14:58:39;;;;;;;53.10;27.40;;;;;;;8.09;67.70;94455.84;5092266;28;20321;-57
2022/12/22 15:01:23;;;;;;;45.47;26.53;;;;;;;7.92;68.34;94438.66;5010058;28;20666;-54
2022/12/22 15:03:57;;;;;;;54.30;27.73;;;;;;;7.96;68.08;94443.31;5010266;28;20253;-55
2022/12/22 15:06:25;;;;;;;46.90;23.67;;;;;;;7.86;67.64;94446.72;5063165;28;20211;-57
2022/12/22 15:08:53;;;;;;;44.27;24.93;;;;;;;7.86;68.02;94439.91;5092077;28;20689;-54
2022/12/22 15:11:20;;;;;;;48.30;25.77;;;;;;;7.83;68.19;94447.75;5073996;28;20665;-59